createdAt,value
2022-09-18T00:01:24.677Z,1.75
2022-09-18T00:03:57.256Z,1.45
2022-09-18T00:06:26.821Z,1.42
2022-09-18T00:08:55.696Z,1.57
2022-09-18T00:11:24.344Z,1.40
2022-09-18T00:13:52.093Z,1.63
2022-09-18T00:16:21.421Z,1.60
2022-09-18T00:18:48.536Z,1.50
2022-09-18T00:21:18.555Z,1.30
2022-09-18T00:24:04.862Z,1.52
2022-09-18T00:26:31.648Z,1.45
2022-09-18T00:28:58.762Z,1.85
2022-09-18T00:31:29.856Z,1.92
2022-09-18T00:33:58.472Z,1.13
2022-09-18T00:36:25.796Z,1.20
2022-09-18T00:38:53.668Z,1.45
2022-09-18T00:41:26.165Z,1.20
2022-09-18T00:43:56.936Z,1.58
2022-09-18T00:46:36.296Z,1.23
2022-09-18T00:49:16.693Z,1.20
2022-09-18T00:51:45.755Z,1.10
2022-09-18T00:54:15.320Z,1.95
2022-09-18T00:56:44.456Z,1.17
2022-09-18T00:59:14.474Z,1.48
2022-09-18T01:01:41.418Z,1.45
2022-09-18T01:04:12.002Z,1.10
2022-09-18T01:06:50.400Z,1.42
2022-09-18T01:09:44.708Z,1.52
2022-09-18T01:12:27.406Z,1.15
2022-09-18T01:15:12.608Z,1.40
2022-09-18T01:17:58.016Z,1.30
2022-09-18T01:20:36.824Z,1.20
2022-09-18T01:23:20.202Z,1.20
2022-09-18T01:26:17.259Z,1.08
2022-09-18T01:28:48.094Z,1.23
2022-09-18T01:31:43.998Z,1.17
2022-09-18T01:34:13.496Z,1.00
2022-09-18T01:36:47.876Z,0.88
2022-09-18T01:39:22.511Z,1.05
2022-09-18T01:41:51.431Z,1.20
2022-09-18T01:44:23.259Z,1.23
2022-09-18T01:46:51.169Z,1.45
2022-09-18T01:49:26.046Z,1.20
2022-09-18T01:52:21.491Z,1.30
2022-09-18T01:54:50.474Z,1.70
2022-09-18T01:57:28.387Z,1.23
2022-09-18T02:00:00.999Z,1.25
2022-09-18T02:02:51.939Z,1.65
2022-09-18T02:05:24.820Z,1.30
2022-09-18T02:08:04.640Z,1.63
2022-09-18T02:10:35.050Z,1.30
2022-09-18T02:15:35.799Z,1.10
2022-09-18T02:18:10.216Z,1.88
2022-09-18T02:20:40.804Z,1.33
2022-09-18T02:23:09.013Z,1.42
2022-09-18T02:25:50.226Z,1.65
2022-09-18T02:28:21.775Z,1.10
2022-09-18T02:30:48.665Z,1.10
2022-09-18T02:33:36.328Z,1.30
2022-09-18T02:36:33.732Z,1.30
2022-09-18T02:39:36.017Z,1.20
2022-09-18T02:42:38.716Z,1.13
2022-09-18T02:45:31.653Z,1.20
2022-09-18T02:48:23.087Z,1.17
2022-09-18T02:51:08.535Z,1.30
2022-09-18T02:53:49.875Z,1.20
2022-09-18T02:56:36.956Z,1.42
2022-09-18T02:59:17.059Z,1.20
2022-09-18T03:01:46.462Z,1.25
2022-09-18T03:04:21.379Z,1.13
2022-09-18T03:06:48.132Z,1.50
2022-09-18T03:09:16.222Z,1.05
2022-09-18T03:11:42.995Z,1.40
2022-09-18T03:14:09.630Z,1.17
2022-09-18T03:16:36.698Z,0.95
2022-09-18T03:19:08.604Z,1.10
2022-09-18T03:21:35.268Z,1.20
2022-09-18T03:24:02.608Z,0.90
2022-09-18T03:26:30.451Z,1.08
2022-09-18T03:28:57.285Z,1.30
2022-09-18T03:31:24.715Z,1.10
2022-09-18T03:33:51.402Z,1.15
2022-09-18T03:36:18.058Z,1.00
2022-09-18T03:38:45.758Z,0.73
2022-09-18T03:41:12.484Z,1.10
2022-09-18T03:43:39.768Z,0.88
2022-09-18T03:46:06.494Z,0.77
2022-09-18T03:48:34.348Z,1.20
2022-09-18T03:51:10.107Z,1.05
2022-09-18T03:54:06.341Z,1.33
2022-09-18T03:56:33.331Z,0.98
2022-09-18T03:59:00.000Z,1.02
2022-09-18T04:01:26.690Z,0.80
2022-09-18T04:03:53.459Z,0.85
2022-09-18T04:06:20.080Z,1.05
2022-09-18T04:08:46.799Z,0.90
2022-09-18T04:11:13.584Z,0.90
2022-09-18T04:13:40.286Z,1.05
2022-09-18T04:16:07.201Z,1.42
2022-09-18T04:18:34.163Z,1.50
2022-09-18T04:21:00.806Z,1.33
2022-09-18T04:23:27.574Z,1.30
2022-09-18T04:25:55.435Z,1.20
2022-09-18T04:28:22.074Z,1.42
2022-09-18T04:30:48.818Z,1.05
2022-09-18T04:33:16.186Z,0.93
2022-09-18T04:35:43.178Z,0.90
2022-09-18T04:38:09.972Z,1.08
2022-09-18T04:40:36.765Z,0.85
2022-09-18T04:43:05.433Z,0.98
2022-09-18T04:45:34.815Z,1.10
2022-09-18T04:48:02.219Z,0.80
2022-09-18T04:50:28.967Z,0.80
2022-09-18T04:52:55.774Z,1.50
2022-09-18T04:55:23.569Z,0.95
2022-09-18T04:57:54.414Z,0.80
2022-09-18T05:00:21.570Z,0.65
2022-09-18T05:02:48.368Z,0.95
2022-09-18T05:05:15.066Z,0.95
2022-09-18T05:07:43.987Z,0.75
2022-09-18T05:10:10.658Z,0.73
2022-09-18T05:12:41.986Z,1.10
2022-09-18T05:15:10.110Z,1.15
2022-09-18T05:17:39.850Z,0.73
2022-09-18T05:20:08.114Z,0.93
2022-09-18T05:22:35.175Z,0.98
2022-09-18T05:25:01.836Z,0.68
2022-09-18T05:27:28.508Z,0.82
2022-09-18T05:29:55.324Z,0.60
2022-09-18T05:32:22.279Z,0.77
2022-09-18T05:34:50.037Z,0.80
2022-09-18T05:37:30.037Z,0.90
2022-09-18T05:40:07.156Z,0.75
2022-09-18T05:42:33.849Z,0.70
2022-09-18T05:45:02.188Z,0.75
2022-09-18T05:47:32.447Z,1.25
2022-09-18T05:49:59.162Z,0.80
2022-09-18T05:52:25.847Z,0.95
2022-09-18T05:54:56.945Z,0.82
2022-09-18T05:57:23.616Z,0.70
2022-09-18T05:59:50.406Z,0.90
2022-09-18T06:02:17.216Z,0.80
2022-09-18T06:04:43.902Z,1.65
2022-09-18T06:07:12.964Z,0.70
2022-09-18T06:09:39.776Z,0.88
2022-09-18T06:12:06.794Z,1.38
2022-09-18T06:14:33.473Z,0.88
2022-09-18T06:17:00.302Z,0.75
2022-09-18T06:19:28.894Z,0.88
2022-09-18T06:24:42.343Z,1.00
2022-09-18T06:27:11.256Z,0.65
2022-09-18T06:29:37.937Z,0.95
2022-09-18T06:32:04.635Z,0.95
2022-09-18T06:34:33.573Z,0.93
2022-09-18T06:37:04.479Z,0.68
2022-09-18T06:39:31.115Z,1.10
2022-09-18T06:42:00.304Z,1.15
2022-09-18T06:44:27.044Z,1.35
2022-09-18T06:46:53.747Z,1.13
2022-09-18T06:49:20.471Z,1.13
2022-09-18T06:51:48.636Z,1.10
2022-09-18T06:54:17.012Z,1.02
2022-09-18T06:56:46.087Z,1.17
2022-09-18T06:59:13.288Z,0.95
2022-09-18T07:01:39.991Z,1.15
2022-09-18T07:04:06.789Z,0.90
2022-09-18T07:06:33.557Z,0.75
2022-09-18T07:09:00.392Z,1.23
2022-09-18T07:11:27.278Z,1.00
2022-09-18T07:13:55.251Z,1.00
2022-09-18T07:16:22.129Z,0.95
2022-09-18T07:18:49.294Z,0.88
2022-09-18T07:21:17.058Z,1.30
2022-09-18T07:23:56.196Z,1.13
2022-09-18T07:26:24.110Z,0.77
2022-09-18T07:28:52.408Z,0.90
2022-09-18T07:31:19.459Z,1.10
2022-09-18T07:33:51.670Z,1.30
2022-09-18T07:36:18.756Z,1.00
2022-09-18T07:38:48.909Z,0.90
2022-09-18T07:41:16.285Z,1.30
2022-09-18T07:43:43.046Z,0.70
2022-09-18T07:46:12.499Z,1.00
2022-09-18T07:48:39.272Z,1.37
2022-09-18T07:51:06.126Z,1.90
2022-09-18T07:53:33.583Z,0.80
2022-09-18T07:56:00.374Z,0.95
2022-09-18T07:58:27.164Z,0.75
2022-09-18T08:00:53.861Z,0.90
2022-09-18T08:03:20.629Z,0.90
2022-09-18T08:05:47.388Z,0.70
2022-09-18T08:08:16.652Z,0.73
2022-09-18T08:10:45.180Z,0.90
2022-09-18T08:13:12.736Z,1.00
2022-09-18T08:15:42.451Z,0.95
2022-09-18T08:18:11.554Z,0.90
2022-09-18T08:20:39.772Z,1.35
2022-09-18T08:23:11.073Z,0.75
2022-09-18T08:25:38.299Z,1.25
2022-09-18T08:28:06.601Z,1.05
2022-09-18T08:30:34.385Z,0.82
2022-09-18T08:33:03.299Z,0.90
2022-09-18T08:35:31.985Z,0.93
2022-09-18T08:37:59.573Z,0.95
2022-09-18T08:40:55.390Z,0.88
2022-09-18T08:43:27.855Z,0.82
2022-09-18T08:46:00.655Z,1.02
2022-09-18T08:48:39.200Z,0.70
2022-09-18T08:51:28.511Z,1.17
2022-09-18T08:54:01.784Z,0.90
2022-09-18T08:56:30.085Z,1.00
2022-09-18T08:59:00.708Z,0.95
2022-09-18T09:01:40.708Z,0.95
2022-09-18T09:04:23.692Z,0.90
2022-09-18T09:07:29.061Z,0.68
2022-09-18T09:10:30.101Z,1.15
2022-09-18T09:13:16.231Z,0.90
2022-09-18T09:15:42.886Z,1.02
2022-09-18T09:18:32.261Z,1.08
2022-09-18T09:21:23.148Z,1.05
2022-09-18T09:24:08.468Z,1.05
2022-09-18T09:26:35.772Z,0.85
2022-09-18T09:29:29.190Z,0.93
2022-09-18T09:32:08.027Z,1.00
2022-09-18T09:34:44.484Z,1.10
2022-09-18T09:37:23.853Z,1.27
2022-09-18T09:40:07.949Z,0.95
2022-09-18T09:42:41.825Z,1.00
2022-09-18T09:45:26.258Z,1.15
2022-09-18T09:48:22.893Z,0.80
2022-09-18T09:51:17.558Z,1.02
2022-09-18T09:53:44.906Z,1.00
2022-09-18T09:56:36.008Z,0.93
2022-09-18T09:59:28.868Z,1.30
2022-09-18T10:02:34.128Z,1.20
2022-09-18T10:05:29.315Z,1.08
2022-09-18T10:08:05.170Z,0.98
2022-09-18T10:10:41.364Z,1.00
2022-09-18T10:13:23.397Z,1.10
2022-09-18T10:16:08.573Z,1.08
2022-09-18T10:18:45.860Z,1.30
2022-09-18T10:21:26.330Z,0.93
2022-09-18T10:26:37.928Z,1.02
2022-09-18T10:29:04.746Z,1.00
2022-09-18T10:31:50.445Z,0.90
2022-09-18T10:34:43.447Z,0.90
2022-09-18T10:37:17.763Z,1.00
2022-09-18T10:39:52.937Z,1.00
2022-09-18T10:42:22.984Z,0.73
2022-09-18T10:44:55.812Z,0.90
2022-09-18T10:47:29.059Z,0.90
2022-09-18T10:50:06.380Z,0.90
2022-09-18T10:52:33.108Z,1.10
2022-09-18T10:55:06.080Z,1.00
2022-09-18T10:57:43.864Z,1.35
2022-09-18T11:00:19.399Z,1.30
2022-09-18T11:02:59.611Z,0.90
2022-09-18T11:05:37.581Z,0.80
2022-09-18T11:08:14.200Z,0.77
2022-09-18T11:10:46.915Z,1.08
2022-09-18T11:13:25.875Z,0.70
2022-09-18T11:15:58.205Z,1.30
2022-09-18T11:18:26.530Z,1.10
2022-09-18T11:20:55.238Z,0.63
2022-09-18T11:23:36.304Z,0.80
2022-09-18T11:26:28.456Z,0.80
2022-09-18T11:29:32.221Z,0.80
2022-09-18T11:32:17.358Z,1.00
2022-09-18T11:34:57.823Z,0.60
2022-09-18T11:40:28.235Z,1.25
2022-09-18T11:42:55.916Z,0.65
2022-09-18T11:45:42.947Z,0.70
2022-09-18T11:48:29.055Z,0.98
2022-09-18T11:50:59.411Z,1.15
2022-09-18T11:53:46.004Z,0.70
2022-09-18T11:56:29.919Z,0.90
2022-09-18T11:59:05.920Z,1.15
2022-09-18T12:01:45.724Z,1.10
2022-09-18T12:04:27.758Z,0.80
2022-09-18T12:07:15.359Z,0.52
2022-09-18T12:10:01.166Z,0.70
2022-09-18T12:12:38.250Z,1.05
2022-09-18T12:15:18.511Z,0.65
2022-09-18T12:17:56.403Z,0.90
2022-09-18T12:20:40.210Z,0.75
2022-09-18T12:23:14.165Z,0.70
2022-09-18T12:26:01.943Z,0.93
2022-09-18T12:28:57.722Z,0.90
2022-09-18T12:31:32.454Z,0.88
2022-09-18T12:34:11.398Z,1.00
2022-09-18T12:36:43.902Z,0.80
2022-09-18T12:39:27.479Z,0.50
2022-09-18T12:42:31.564Z,0.90
2022-09-18T12:45:29.815Z,0.95
2022-09-18T12:48:15.330Z,1.08
2022-09-18T12:50:51.438Z,0.85
2022-09-18T12:53:24.525Z,0.85
2022-09-18T12:56:10.072Z,1.13
2022-09-18T12:59:05.999Z,0.68
2022-09-18T13:01:54.825Z,1.13
2022-09-18T13:04:40.670Z,4.15
2022-09-18T13:07:16.570Z,1.40
2022-09-18T13:09:59.307Z,1.20
2022-09-18T13:12:39.715Z,1.00
2022-09-18T13:15:16.150Z,0.98
2022-09-18T13:17:53.327Z,1.30
2022-09-18T13:20:27.710Z,1.25
2022-09-18T13:22:55.546Z,1.08
2022-09-18T13:25:30.036Z,1.00
2022-09-18T13:27:59.636Z,1.27
2022-09-18T13:30:31.298Z,1.40
2022-09-18T13:33:02.229Z,1.33
2022-09-18T13:35:37.560Z,1.58
2022-09-18T13:38:19.769Z,1.33
2022-09-18T13:40:59.186Z,1.83
2022-09-18T13:43:28.916Z,1.30
2022-09-18T13:45:57.681Z,1.38
2022-09-18T13:48:32.379Z,1.70
2022-09-18T13:51:04.725Z,1.55
2022-09-18T13:53:40.747Z,1.48
2022-09-18T13:56:13.012Z,1.20
2022-09-18T13:58:50.168Z,1.23
2022-09-18T14:01:41.981Z,1.23
2022-09-18T14:04:39.589Z,1.42
2022-09-18T14:07:25.372Z,1.27
2022-09-18T14:10:04.246Z,1.27
2022-09-18T14:12:34.584Z,1.35
2022-09-18T14:15:06.551Z,1.65
2022-09-18T14:17:35.376Z,1.10
2022-09-18T14:20:11.112Z,1.20
2022-09-18T14:22:40.335Z,1.10
2022-09-18T14:25:11.434Z,0.80
2022-09-18T14:28:03.327Z,1.27
2022-09-18T14:30:31.316Z,1.30
2022-09-18T14:33:15.987Z,0.80
2022-09-18T14:36:04.426Z,1.38
2022-09-18T14:38:36.735Z,1.10
2022-09-18T14:41:11.433Z,1.40
2022-09-18T14:44:07.644Z,1.50
2022-09-18T14:46:51.566Z,1.40
2022-09-18T14:49:34.678Z,1.30
2022-09-18T14:52:04.649Z,1.25
2022-09-18T14:54:40.882Z,1.25
2022-09-18T14:57:13.049Z,1.10
2022-09-18T14:59:40.505Z,1.05
2022-09-18T15:02:22.684Z,2.05
2022-09-18T15:04:49.888Z,2.38
2022-09-18T15:07:21.859Z,3.40
2022-09-18T15:09:52.902Z,3.50
2022-09-18T15:12:23.201Z,2.70
2022-09-18T15:14:50.370Z,3.10
2022-09-18T15:17:26.698Z,1.90
2022-09-18T15:20:23.804Z,1.50
2022-09-18T15:22:52.547Z,1.02
2022-09-18T15:25:28.075Z,1.30
2022-09-18T15:27:56.572Z,1.63
2022-09-18T15:30:25.500Z,1.63
2022-09-18T15:33:00.295Z,2.00
2022-09-18T15:35:36.404Z,1.70
2022-09-18T15:38:18.257Z,1.80
2022-09-18T15:40:47.180Z,1.50
2022-09-18T15:43:33.665Z,2.65
2022-09-18T15:46:06.821Z,2.20
2022-09-18T15:48:34.053Z,1.60
2022-09-18T15:51:30.837Z,1.60
2022-09-18T15:54:13.212Z,1.70
2022-09-18T15:56:50.720Z,1.52
2022-09-18T15:59:30.757Z,4.03
2022-09-18T16:01:59.196Z,1.90
2022-09-18T16:04:33.407Z,2.17
2022-09-18T16:07:01.763Z,1.42
2022-09-18T16:09:41.796Z,1.55
2022-09-18T16:12:31.474Z,1.23
2022-09-18T16:15:18.612Z,1.27
2022-09-18T16:17:45.281Z,1.80
2022-09-18T16:20:31.529Z,2.20
2022-09-18T16:23:24.074Z,2.42
2022-09-18T16:26:13.752Z,1.92
2022-09-18T16:28:45.932Z,1.17
2022-09-18T16:31:15.085Z,1.10
2022-09-18T16:34:16.080Z,1.23
2022-09-18T16:36:43.228Z,1.00
2022-09-18T16:39:19.163Z,1.23
2022-09-18T16:41:46.599Z,1.85
2022-09-18T16:44:27.833Z,1.20
2022-09-18T16:47:20.577Z,1.30
2022-09-18T16:49:49.382Z,1.15
2022-09-18T16:52:17.216Z,0.90
2022-09-18T16:54:43.931Z,0.98
2022-09-18T16:57:55.684Z,1.20
2022-09-18T17:00:38.970Z,1.40
2022-09-18T17:03:07.025Z,1.08
2022-09-18T17:06:02.372Z,1.15
2022-09-18T17:08:37.146Z,0.98
2022-09-18T17:11:14.869Z,1.00
2022-09-18T17:13:48.550Z,1.10
2022-09-18T17:16:35.260Z,0.95
2022-09-18T17:19:06.264Z,1.40
2022-09-18T17:21:40.297Z,0.85
2022-09-18T17:24:17.549Z,1.35
2022-09-18T17:26:44.351Z,1.50
2022-09-18T17:29:25.217Z,1.08
2022-09-18T17:31:57.387Z,1.65
2022-09-18T17:34:39.668Z,1.50
2022-09-18T17:37:19.514Z,1.27
2022-09-18T17:39:56.240Z,1.90
2022-09-18T17:42:39.437Z,2.10
2022-09-18T17:45:36.256Z,2.42
2022-09-18T17:48:22.482Z,3.25
2022-09-18T17:51:18.635Z,1.40
2022-09-18T17:54:03.131Z,1.73
2022-09-18T17:56:37.895Z,1.45
2022-09-18T17:59:18.940Z,1.20
2022-09-18T18:02:13.030Z,1.23
2022-09-18T18:04:40.872Z,0.93
2022-09-18T18:07:09.696Z,2.20
2022-09-18T18:09:37.548Z,2.10
2022-09-18T18:12:36.731Z,2.20
2022-09-18T18:15:06.955Z,2.50
2022-09-18T18:17:34.718Z,2.53
2022-09-18T18:20:03.416Z,1.50
2022-09-18T18:22:30.999Z,1.55
2022-09-18T18:24:57.767Z,1.65
2022-09-18T18:27:24.795Z,1.27
2022-09-18T18:29:52.460Z,1.52
2022-09-18T18:32:19.665Z,1.38
2022-09-18T18:34:47.457Z,1.50
2022-09-18T18:37:14.605Z,1.48
2022-09-18T18:39:41.527Z,1.65
2022-09-18T18:42:10.818Z,2.10
2022-09-18T18:44:38.465Z,2.78
2022-09-18T18:47:05.410Z,2.45
2022-09-18T18:49:32.898Z,2.28
2022-09-18T18:52:03.452Z,1.65
2022-09-18T18:54:31.600Z,1.90
2022-09-18T18:56:58.261Z,1.60
2022-09-18T18:59:25.612Z,1.80
2022-09-18T19:01:56.695Z,1.77
2022-09-18T19:04:24.043Z,1.83
2022-09-18T19:06:51.648Z,2.13
2022-09-18T19:09:24.409Z,1.70
2022-09-18T19:11:52.828Z,1.77
2022-09-18T19:14:29.605Z,2.60
2022-09-18T19:16:56.587Z,2.05
2022-09-18T19:19:33.450Z,2.22
2022-09-18T19:22:00.126Z,1.95
2022-09-18T19:24:28.152Z,2.17
2022-09-18T19:26:55.090Z,2.20
2022-09-18T19:29:21.972Z,1.95
2022-09-18T19:31:50.405Z,2.00
2022-09-18T19:34:19.944Z,2.15
2022-09-18T19:36:50.103Z,2.28
2022-09-18T19:39:18.723Z,2.08
2022-09-18T19:42:03.258Z,2.08
2022-09-18T19:44:53.000Z,1.88
2022-09-18T19:47:46.365Z,2.60
2022-09-18T19:50:25.110Z,2.70
2022-09-18T19:52:52.001Z,3.33
2022-09-18T19:55:20.821Z,5.10
2022-09-18T19:57:53.093Z,4.78
2022-09-18T20:00:20.376Z,3.40
2022-09-18T20:02:47.080Z,3.40
2022-09-18T20:05:13.783Z,2.60
2022-09-18T20:07:41.647Z,2.33
2022-09-18T20:10:14.332Z,2.50
2022-09-18T20:12:42.230Z,2.17
2022-09-18T20:15:09.979Z,2.05
2022-09-18T20:17:38.122Z,2.35
2022-09-18T20:20:08.833Z,2.42
2022-09-18T20:22:39.700Z,1.90
2022-09-18T20:25:08.104Z,1.83
2022-09-18T20:27:40.978Z,1.83
2022-09-18T20:30:10.725Z,1.90
2022-09-18T20:32:37.634Z,1.80
2022-09-18T20:35:05.128Z,1.70
2022-09-18T20:37:32.951Z,1.60
2022-09-18T20:40:03.417Z,2.00
2022-09-18T20:45:02.158Z,2.17
2022-09-18T20:50:13.694Z,2.67
2022-09-18T20:52:43.110Z,1.92
2022-09-18T20:55:13.544Z,2.20
2022-09-18T21:00:10.303Z,2.00
2022-09-18T21:02:38.158Z,2.13
2022-09-18T21:05:11.493Z,2.03
2022-09-18T21:07:38.234Z,1.60
2022-09-18T21:10:06.995Z,2.03
2022-09-18T21:12:40.481Z,2.00
2022-09-18T21:15:09.650Z,1.70
2022-09-18T21:17:39.095Z,2.00
2022-09-18T21:20:06.553Z,1.75
2022-09-18T21:22:33.395Z,1.60
2022-09-18T21:25:00.061Z,1.55
2022-09-18T21:27:27.175Z,1.63
2022-09-18T21:29:56.411Z,1.48
2022-09-18T21:32:23.429Z,1.50
2022-09-18T21:34:52.773Z,1.35
2022-09-18T21:37:19.480Z,1.75
2022-09-18T21:39:52.483Z,1.52
2022-09-18T21:42:19.189Z,1.80
2022-09-18T21:44:45.820Z,1.73
2022-09-18T21:47:13.065Z,1.30
2022-09-18T21:49:39.739Z,1.80
2022-09-18T21:52:09.208Z,1.50
2022-09-18T21:54:36.066Z,1.60
2022-09-18T21:57:03.604Z,1.58
2022-09-18T21:59:31.493Z,1.90
2022-09-18T22:01:59.135Z,1.50
2022-09-18T22:04:29.793Z,1.58
2022-09-18T22:06:58.200Z,1.95
2022-09-18T22:09:27.950Z,1.80
2022-09-18T22:11:55.371Z,1.38
2022-09-18T22:14:24.923Z,1.42
2022-09-18T22:16:53.693Z,1.47
2022-09-18T22:19:23.778Z,1.58
2022-09-18T22:21:51.664Z,1.60
2022-09-18T22:24:21.569Z,1.50
2022-09-18T22:26:51.523Z,1.60
2022-09-18T22:29:22.043Z,1.83
2022-09-18T22:31:49.610Z,1.83
2022-09-18T22:34:18.475Z,1.40
2022-09-18T22:36:47.000Z,1.85
2022-09-18T22:39:16.361Z,2.03
2022-09-18T22:41:43.879Z,1.30
2022-09-18T22:44:11.687Z,1.58
2022-09-18T22:46:40.455Z,1.70
2022-09-18T22:49:08.797Z,1.23
2022-09-18T22:51:35.502Z,1.40
2022-09-18T22:54:07.710Z,1.67
2022-09-18T22:56:41.565Z,1.75
2022-09-18T22:59:11.776Z,1.10
2022-09-18T23:01:42.533Z,1.50
2022-09-18T23:04:09.942Z,1.70
2022-09-18T23:06:36.757Z,1.10
2022-09-18T23:09:04.716Z,1.08
2022-09-18T23:11:33.561Z,1.65
2022-09-18T23:14:06.024Z,1.45
2022-09-18T23:16:35.250Z,1.10
2022-09-18T23:19:20.878Z,1.25
2022-09-18T23:21:49.488Z,1.63
2022-09-18T23:24:16.651Z,2.38
2022-09-18T23:26:45.865Z,1.73
2022-09-18T23:29:15.459Z,1.52
2022-09-18T23:31:44.503Z,1.17
2022-09-18T23:34:19.595Z,2.17
2022-09-18T23:36:49.614Z,1.33
2022-09-18T23:39:22.806Z,1.33
2022-09-18T23:41:50.299Z,1.30
2022-09-18T23:44:18.660Z,1.55
2022-09-18T23:46:46.352Z,1.25
2022-09-18T23:49:14.378Z,1.13
2022-09-18T23:51:46.310Z,1.17
2022-09-18T23:54:19.217Z,1.30
2022-09-18T23:56:46.607Z,1.40
2022-09-18T23:59:14.883Z,1.30
